createdAt,value
2023-02-13T00:02:01.777Z,93
2023-02-13T00:05:26.918Z,93
2023-02-13T00:08:52.106Z,93
2023-02-13T00:12:17.321Z,93
2023-02-13T00:15:42.518Z,94
2023-02-13T00:19:07.631Z,94
2023-02-13T00:22:32.807Z,94
2023-02-13T00:25:57.995Z,94
2023-02-13T00:29:23.207Z,93
2023-02-13T00:32:48.347Z,93
2023-02-13T00:36:13.540Z,93
2023-02-13T00:39:38.736Z,93
2023-02-13T00:43:03.899Z,93
2023-02-13T00:46:29.149Z,93
2023-02-13T00:49:54.256Z,93
2023-02-13T00:53:19.413Z,93
2023-02-13T00:56:44.617Z,93
2023-02-13T01:00:09.801Z,94
2023-02-13T01:03:35.051Z,94
2023-02-13T01:07:00.170Z,94
2023-02-13T01:10:25.349Z,93
2023-02-13T01:13:50.549Z,93
2023-02-13T01:17:15.724Z,93
2023-02-13T01:20:40.935Z,93
2023-02-13T01:24:06.078Z,93
2023-02-13T01:27:31.247Z,93
2023-02-13T01:30:57.081Z,92
2023-02-13T01:34:21.604Z,92
2023-02-13T01:37:46.836Z,91
2023-02-13T01:41:11.978Z,91
2023-02-13T01:44:37.164Z,91
2023-02-13T01:48:02.350Z,91
2023-02-13T01:51:27.543Z,91
2023-02-13T01:54:52.754Z,90
2023-02-13T01:58:17.917Z,90
2023-02-13T02:01:43.161Z,90
2023-02-13T02:05:08.269Z,90
2023-02-13T02:08:33.413Z,90
2023-02-13T02:11:58.633Z,89
2023-02-13T02:15:23.776Z,89
2023-02-13T02:18:48.961Z,89
2023-02-13T02:22:14.161Z,89
2023-02-13T02:25:39.336Z,89
2023-02-13T02:29:04.530Z,90
2023-02-13T02:32:29.758Z,89
2023-02-13T02:35:54.914Z,89
2023-02-13T02:39:20.099Z,89
2023-02-13T02:42:45.274Z,90
2023-02-13T02:46:10.469Z,91
2023-02-13T02:49:35.623Z,91
2023-02-13T02:53:00.816Z,91
2023-02-13T02:56:26.025Z,90
2023-02-13T02:59:51.193Z,90
2023-02-13T03:03:16.406Z,89
2023-02-13T03:06:41.564Z,89
2023-02-13T03:10:06.753Z,88
2023-02-13T03:13:31.953Z,88
2023-02-13T03:16:57.116Z,88
2023-02-13T03:20:22.404Z,87
2023-02-13T03:23:47.498Z,87
2023-02-13T03:27:12.684Z,88
2023-02-13T03:30:37.886Z,88
2023-02-13T03:34:03.026Z,88
2023-02-13T03:37:28.261Z,89
2023-02-13T03:40:53.417Z,88
2023-02-13T03:44:18.617Z,89
2023-02-13T03:47:43.784Z,89
2023-02-13T03:51:08.968Z,88
2023-02-13T03:54:34.158Z,89
2023-02-13T03:57:59.327Z,90
2023-02-13T04:01:24.541Z,91
2023-02-13T04:04:49.681Z,91
2023-02-13T04:08:14.893Z,91
2023-02-13T04:11:40.096Z,91
2023-02-13T04:15:05.225Z,91
2023-02-13T04:18:30.418Z,92
2023-02-13T04:21:55.602Z,92
2023-02-13T04:25:20.809Z,93
2023-02-13T04:28:46.021Z,93
2023-02-13T04:32:11.185Z,93
2023-02-13T04:35:36.351Z,93
2023-02-13T04:39:01.558Z,93
2023-02-13T04:42:26.697Z,92
2023-02-13T04:45:51.948Z,93
2023-02-13T04:49:17.061Z,92
2023-02-13T04:52:42.275Z,92
2023-02-13T04:56:07.466Z,91
2023-02-13T04:59:32.644Z,91
2023-02-13T05:02:57.851Z,91
2023-02-13T05:06:23.022Z,91
2023-02-13T05:09:48.212Z,91
2023-02-13T05:13:13.386Z,92
2023-02-13T05:16:38.571Z,92
2023-02-13T05:20:03.781Z,92
2023-02-13T05:23:28.931Z,92
2023-02-13T05:26:54.120Z,90
2023-02-13T05:30:19.284Z,90
2023-02-13T05:33:44.495Z,92
2023-02-13T05:37:09.742Z,92
2023-02-13T05:40:34.893Z,92
2023-02-13T05:44:00.113Z,92
2023-02-13T05:47:25.272Z,91
2023-02-13T05:50:50.460Z,91
2023-02-13T05:54:15.658Z,92
2023-02-13T05:57:40.810Z,92
2023-02-13T06:01:05.978Z,92
2023-02-13T06:04:31.162Z,91
2023-02-13T06:07:56.475Z,91
2023-02-13T06:11:21.675Z,91
2023-02-13T06:14:46.838Z,91
2023-02-13T06:18:12.021Z,91
2023-02-13T06:21:37.725Z,92
2023-02-13T06:25:02.906Z,92
2023-02-13T06:28:28.179Z,93
2023-02-13T06:31:53.310Z,92
2023-02-13T06:35:19.147Z,93
2023-02-13T06:38:44.372Z,94
2023-02-13T06:42:09.610Z,94
2023-02-13T06:45:34.822Z,93
2023-02-13T06:48:59.984Z,93
2023-02-13T06:52:25.189Z,93
2023-02-13T06:55:50.367Z,93
2023-02-13T06:59:15.543Z,93
2023-02-13T07:02:40.791Z,93
2023-02-13T07:06:05.891Z,93
2023-02-13T07:09:31.092Z,93
2023-02-13T07:13:05.159Z,94
2023-02-13T07:16:21.566Z,94
2023-02-13T07:19:46.713Z,94
2023-02-13T07:23:11.899Z,94
2023-02-13T07:26:37.083Z,93
2023-02-13T07:30:02.350Z,93
2023-02-13T07:33:27.506Z,92
2023-02-13T07:36:52.765Z,93
2023-02-13T07:40:17.924Z,93
2023-02-13T07:43:43.136Z,93
2023-02-13T07:47:08.356Z,93
2023-02-13T07:50:33.518Z,93
2023-02-13T07:53:58.754Z,93
2023-02-13T07:57:23.920Z,93
2023-02-13T08:00:49.102Z,93
2023-02-13T08:04:14.392Z,93
2023-02-13T08:07:39.486Z,93
2023-02-13T08:11:04.700Z,93
2023-02-13T08:14:29.880Z,93
2023-02-13T08:17:55.070Z,93
2023-02-13T08:21:20.238Z,92
2023-02-13T08:24:45.444Z,92
2023-02-13T08:28:10.709Z,92
2023-02-13T08:31:35.903Z,91
2023-02-13T08:35:01.026Z,92
2023-02-13T08:38:27.188Z,91
2023-02-13T08:41:52.428Z,91
2023-02-13T08:45:17.696Z,91
2023-02-13T08:48:42.846Z,91
2023-02-13T08:52:08.036Z,91
2023-02-13T08:55:33.236Z,91
2023-02-13T08:58:58.411Z,91
2023-02-13T09:02:23.662Z,90
2023-02-13T09:05:48.801Z,90
2023-02-13T09:09:14.038Z,90
2023-02-13T09:12:39.254Z,90
2023-02-13T09:16:10.256Z,89
2023-02-13T09:19:35.508Z,89
2023-02-13T09:23:00.659Z,89
2023-02-13T09:26:25.841Z,89
2023-02-13T09:29:51.023Z,89
2023-02-13T09:33:16.212Z,88
2023-02-13T09:36:41.406Z,88
2023-02-13T09:40:06.568Z,87
2023-02-13T09:43:31.788Z,87
2023-02-13T09:46:58.177Z,87
2023-02-13T09:50:23.449Z,86
2023-02-13T09:53:48.654Z,86
2023-02-13T09:57:13.802Z,85
2023-02-13T10:00:39.030Z,85
2023-02-13T10:04:04.232Z,85
2023-02-13T10:07:29.447Z,84
2023-02-13T10:10:54.671Z,84
2023-02-13T10:14:19.876Z,84
2023-02-13T10:17:45.101Z,84
2023-02-13T10:21:10.293Z,84
2023-02-13T10:24:35.495Z,84
2023-02-13T10:28:00.794Z,84
2023-02-13T10:31:26.081Z,83
2023-02-13T10:34:51.048Z,82
2023-02-13T10:38:16.247Z,83
2023-02-13T10:41:41.436Z,83
2023-02-13T10:45:06.615Z,83
2023-02-13T10:48:31.825Z,83
2023-02-13T10:51:57.016Z,83
2023-02-13T10:55:22.205Z,82
2023-02-13T10:58:47.416Z,81
2023-02-13T11:02:12.611Z,80
2023-02-13T11:05:37.775Z,81
2023-02-13T11:09:02.977Z,80
2023-02-13T11:12:28.204Z,80
2023-02-13T11:15:53.472Z,81
2023-02-13T11:19:18.651Z,80
2023-02-13T11:22:43.831Z,79
2023-02-13T11:26:09.013Z,78
2023-02-13T11:29:34.232Z,79
2023-02-13T11:32:59.454Z,79
2023-02-13T11:36:24.657Z,80
2023-02-13T11:39:51.289Z,79
2023-02-13T11:43:15.054Z,80
2023-02-13T11:46:40.294Z,80
2023-02-13T11:50:05.437Z,80
2023-02-13T11:53:30.692Z,80
2023-02-13T11:57:08.062Z,80
2023-02-13T12:00:21.241Z,80
2023-02-13T12:03:46.447Z,79
2023-02-13T12:07:11.597Z,80
2023-02-13T12:10:36.841Z,79
2023-02-13T12:14:02.240Z,79
2023-02-13T12:17:31.570Z,78
2023-02-13T12:20:52.617Z,79
2023-02-13T12:24:17.858Z,79
2023-02-13T12:27:43.084Z,79
2023-02-13T12:31:08.277Z,78
2023-02-13T12:34:33.406Z,77
2023-02-13T12:37:58.591Z,78
2023-02-13T12:41:23.800Z,78
2023-02-13T12:44:49.000Z,77
2023-02-13T12:48:14.175Z,77
2023-02-13T12:51:40.154Z,77
2023-02-13T12:55:05.368Z,78
2023-02-13T12:58:30.602Z,78
2023-02-13T13:01:55.852Z,78
2023-02-13T13:05:20.963Z,78
2023-02-13T13:08:46.136Z,77
2023-02-13T13:12:11.348Z,77
2023-02-13T13:15:36.554Z,77
2023-02-13T13:19:01.811Z,78
2023-02-13T13:22:26.953Z,77
2023-02-13T13:25:52.142Z,77
2023-02-13T13:29:17.370Z,77
2023-02-13T13:32:42.530Z,77
2023-02-13T13:36:07.731Z,77
2023-02-13T13:39:32.913Z,77
2023-02-13T13:42:58.132Z,77
2023-02-13T13:46:23.372Z,77
2023-02-13T13:49:48.519Z,76
2023-02-13T13:53:13.759Z,77
2023-02-13T13:56:38.947Z,77
2023-02-13T14:00:04.133Z,77
2023-02-13T14:03:29.367Z,77
2023-02-13T14:06:54.569Z,77
2023-02-13T14:10:19.796Z,76
2023-02-13T14:13:44.989Z,77
2023-02-13T14:17:10.211Z,77
2023-02-13T14:20:35.407Z,77
2023-02-13T14:24:00.571Z,77
2023-02-13T14:27:25.798Z,77
2023-02-13T14:30:51.108Z,77
2023-02-13T15:06:28.718Z,77
2023-02-13T15:09:54.101Z,77
2023-02-13T15:13:19.251Z,77
2023-02-13T15:16:44.439Z,78
2023-02-13T15:20:09.626Z,77
2023-02-13T15:23:34.987Z,77
2023-02-13T15:27:00.192Z,77
2023-02-13T15:30:25.465Z,77
2023-02-13T15:33:50.601Z,78
2023-02-13T15:37:16.058Z,78
2023-02-13T15:40:41.315Z,79
2023-02-13T15:44:06.457Z,79
2023-02-13T15:47:31.640Z,79
2023-02-13T15:50:57.073Z,79
2023-02-13T15:54:22.060Z,79
2023-02-13T15:57:47.257Z,79
2023-02-13T16:01:12.390Z,79
2023-02-13T16:04:37.554Z,80
2023-02-13T16:08:02.791Z,80
2023-02-13T16:11:27.976Z,80
2023-02-13T16:14:53.187Z,81
2023-02-13T16:18:18.361Z,81
2023-02-13T16:21:43.649Z,81
2023-02-13T16:25:08.841Z,81
2023-02-13T16:28:34.019Z,82
2023-02-13T16:32:22.564Z,82
2023-02-13T16:35:47.815Z,82
2023-02-13T16:39:12.943Z,82
2023-02-13T16:42:38.173Z,82
2023-02-13T16:46:03.601Z,82
2023-02-13T16:49:28.799Z,83
2023-02-13T16:52:54.075Z,82
2023-02-13T16:56:19.321Z,82
2023-02-13T16:59:44.513Z,82
2023-02-13T17:03:09.717Z,82
2023-02-13T17:06:34.978Z,82
2023-02-13T17:10:01.268Z,82
2023-02-13T17:13:27.588Z,81
2023-02-13T17:17:07.083Z,81
2023-02-13T17:20:32.388Z,83
2023-02-13T17:23:57.683Z,82
2023-02-13T17:27:22.961Z,81
2023-02-13T17:30:48.177Z,82
2023-02-13T17:34:13.410Z,82
2023-02-13T17:37:38.661Z,81
2023-02-13T17:41:03.929Z,83
2023-02-13T17:44:29.181Z,84
2023-02-13T17:47:54.412Z,83
2023-02-13T17:51:19.719Z,82
2023-02-13T17:54:45.038Z,83
2023-02-13T17:58:10.463Z,84
2023-02-13T18:01:35.703Z,83
2023-02-13T18:05:00.999Z,83
2023-02-13T18:08:26.239Z,83
2023-02-13T18:12:04.724Z,83
2023-02-13T18:15:17.008Z,84
2023-02-13T18:18:42.288Z,84
2023-02-13T18:22:07.639Z,84
2023-02-13T18:25:32.936Z,84
2023-02-13T18:28:58.239Z,84
2023-02-13T18:32:23.541Z,84
2023-02-13T18:35:48.823Z,84
2023-02-13T18:39:14.136Z,84
2023-02-13T18:42:39.433Z,84
2023-02-13T18:46:04.729Z,84
2023-02-13T18:49:29.908Z,84
2023-02-13T18:52:55.150Z,84
2023-02-13T18:56:20.463Z,84
2023-02-13T18:59:45.772Z,83
2023-02-13T19:03:11.064Z,83
2023-02-13T19:06:36.401Z,84
2023-02-13T19:10:01.611Z,83
2023-02-13T19:13:26.900Z,84
2023-02-13T19:16:52.153Z,84
2023-02-13T19:20:17.459Z,84
2023-02-13T19:23:42.816Z,83
2023-02-13T19:27:07.972Z,83
2023-02-13T19:30:33.260Z,83
2023-02-13T19:33:58.578Z,83
2023-02-13T19:37:25.308Z,83
2023-02-13T19:40:49.159Z,83
2023-02-13T19:44:14.419Z,83
2023-02-13T19:47:39.685Z,84
2023-02-13T19:51:05.000Z,83
2023-02-13T19:54:30.297Z,84
2023-02-13T19:57:55.683Z,84
2023-02-13T20:01:21.033Z,84
2023-02-13T20:04:46.193Z,84
2023-02-13T20:08:11.495Z,84
2023-02-13T20:11:36.754Z,84
2023-02-13T20:15:02.026Z,83
2023-02-13T20:18:27.248Z,84
2023-02-13T20:21:52.467Z,83
2023-02-13T20:25:17.628Z,83
2023-02-13T20:28:42.787Z,83
2023-02-13T20:32:08.180Z,84
2023-02-13T20:35:33.274Z,84
2023-02-13T20:38:58.436Z,84
2023-02-13T20:42:23.655Z,84
2023-02-13T20:45:48.844Z,84
2023-02-13T20:49:14.027Z,85
2023-02-13T20:52:39.230Z,85
2023-02-13T20:56:04.389Z,85
2023-02-13T20:59:29.574Z,85
2023-02-13T21:02:54.855Z,85
2023-02-13T21:06:20.370Z,85
2023-02-13T21:09:45.633Z,85
2023-02-13T21:13:10.886Z,85
2023-02-13T21:16:37.129Z,85
2023-02-13T21:20:02.632Z,85
2023-02-13T21:23:28.182Z,85
2023-02-13T21:26:53.322Z,85
2023-02-13T21:30:18.599Z,85
2023-02-13T21:33:43.664Z,85
2023-02-13T21:37:08.874Z,86
2023-02-13T21:40:34.074Z,86
2023-02-13T21:43:59.259Z,86
2023-02-13T21:47:24.473Z,86
2023-02-13T21:50:49.558Z,85
2023-02-13T21:54:14.780Z,86
2023-02-13T21:57:39.927Z,85
2023-02-13T22:01:05.188Z,85
2023-02-13T22:04:30.255Z,85
2023-02-13T22:07:55.434Z,85
2023-02-13T22:11:20.589Z,84
2023-02-13T22:14:45.779Z,84
2023-02-13T22:18:10.947Z,85
2023-02-13T22:21:36.106Z,85
2023-02-13T22:25:01.286Z,86
2023-02-13T22:28:26.461Z,86
2023-02-13T22:31:51.813Z,86
2023-02-13T22:35:16.816Z,86
2023-02-13T22:38:41.982Z,86
2023-02-13T22:42:07.195Z,86
2023-02-13T22:45:32.389Z,86
2023-02-13T22:48:57.590Z,87
2023-02-13T22:52:22.758Z,86
2023-02-13T22:55:47.893Z,86
2023-02-13T22:59:13.070Z,86
2023-02-13T23:02:38.281Z,86
2023-02-13T23:06:03.452Z,86
2023-02-13T23:09:28.592Z,86
2023-02-13T23:12:53.774Z,87
2023-02-13T23:16:18.992Z,87
2023-02-13T23:19:44.140Z,87
2023-02-13T23:23:09.357Z,87
2023-02-13T23:26:34.480Z,87
2023-02-13T23:29:59.688Z,87
2023-02-13T23:33:24.827Z,87
2023-02-13T23:36:49.994Z,86
2023-02-13T23:40:15.212Z,85
2023-02-13T23:43:40.370Z,86
2023-02-13T23:47:05.548Z,86
2023-02-13T23:50:30.733Z,86
2023-02-13T23:53:55.925Z,86
2023-02-13T23:57:21.108Z,85
